Time;durP1;ratioP1;P1;durP2;ratioP2;P2;SDS_P1;SDS_P2;PMS_P1;PMS_P2;Temp;Humidity;BMP_temperature;BMP_pressure;BME280_temperature;BME280_humidity;BME280_pressure;Samples;Min_cycle;Max_cycle;Signal;HPM_P1;HPM_P2
2022/12/25 00:03:26;;;;;;;114.00;42.20;;;;;;;3.99;98.02;100497.73;660133;1313;138915;-88
2022/12/25 00:18:29;;;;;;;37.30;19.10;;;;;;;3.96;97.80;100503.41;659384;1312;138937;-88
2022/12/25 00:33:38;;;;;;;49.90;20.90;;;;;;;3.91;97.87;100516.16;659553;1313;138833;-87
2022/12/25 00:48:44;;;;;;;36.80;17.80;;;;;;;3.95;97.86;100540.67;659910;1313;138690;-87
2022/12/25 01:03:47;;;;;;;25.60;13.80;;;;;;;3.86;97.62;100560.59;659898;1313;138543;-86
2022/12/25 01:18:51;;;;;;;38.40;17.50;;;;;;;3.97;98.38;100573.31;659494;1313;138782;-88
2022/12/25 01:33:54;;;;;;;55.00;22.50;;;;;;;4.00;98.55;100579.87;659834;1301;138462;-88
2022/12/25 01:49:02;;;;;;;59.90;25.50;;;;;;;4.05;98.59;100572.33;659990;1312;138541;-87
2022/12/25 02:04:37;;;;;;;57.50;23.10;;;;;;;4.06;98.74;100571.95;660200;1300;138567;-87
2022/12/25 02:20:18;;;;;;;37.60;16.70;;;;;;;4.13;98.65;100585.76;659804;1313;161853;-87
2022/12/25 02:35:29;;;;;;;28.20;12.40;;;;;;;4.10;98.27;100585.91;659844;1313;138719;-88
2022/12/25 04:38:26;;;;;;;46.80;21.50;;;;;;;4.02;99.81;100633.08;660037;1309;138722;-87
2022/12/25 04:53:29;;;;;;;21.80;11.70;;;;;;;4.04;99.32;100625.54;660141;1313;138516;-87
2022/12/25 05:08:34;;;;;;;25.50;12.50;;;;;;;3.95;99.41;100625.99;659952;1312;138694;-86
2022/12/25 05:23:38;;;;;;;41.50;18.90;;;;;;;3.89;99.19;100638.27;659555;1306;138503;-89
2022/12/25 05:38:41;;;;;;;45.80;23.10;;;;;;;3.92;99.47;100647.98;659654;1305;138738;-87
2022/12/25 05:53:44;;;;;;;58.50;28.40;;;;;;;3.98;99.55;100666.54;659973;1299;139230;-88
2022/12/25 06:08:47;;;;;;;99.80;46.10;;;;;;;4.03;99.66;100687.04;659879;1313;138562;-87
2022/12/25 06:23:51;;;;;;;161.30;64.90;;;;;;;4.01;99.78;100704.61;659477;1313;138514;-89
2022/12/25 06:38:55;;;;;;;95.80;47.10;;;;;;;3.98;99.72;100725.20;659905;1304;138679;-88
2022/12/25 06:54:02;;;;;;;89.80;44.10;;;;;;;4.04;99.92;100750.64;660071;1313;138423;-88
2022/12/25 07:09:06;;;;;;;81.00;40.60;;;;;;;4.09;100.00;100775.35;659731;1313;138559;-87
2022/12/25 07:24:10;;;;;;;116.30;52.30;;;;;;;4.14;99.88;100799.82;659789;1313;138760;-88
2022/12/25 07:39:13;;;;;;;321.50;118.00;;;;;;;4.20;99.91;100819.11;660442;1313;138836;-87
2022/12/25 07:54:17;;;;;;;221.50;82.30;;;;;;;4.23;100.00;100840.59;660544;1312;138856;-87
2022/12/25 08:09:20;;;;;;;167.70;64.90;;;;;;;4.30;100.00;100854.05;660639;1313;138740;-87
2022/12/25 08:24:24;;;;;;;109.60;38.90;;;;;;;4.44;100.00;100867.48;660700;1299;138889;-88
2022/12/25 08:39:27;;;;;;;287.40;90.00;;;;;;;4.61;100.00;100886.55;662110;1305;138758;-89
2022/12/25 08:54:32;;;;;;;166.80;71.80;;;;;;;4.67;100.00;100890.95;660619;1313;139659;-88
2022/12/25 09:09:36;;;;;;;114.90;50.30;;;;;;;4.63;100.00;100886.62;660677;1312;138783;-87
2022/12/25 09:24:39;;;;;;;71.10;33.40;;;;;;;4.80;100.00;100876.34;660625;1312;139216;-89
2022/12/25 09:39:43;;;;;;;73.60;32.30;;;;;;;4.89;100.00;100879.86;660700;1312;138672;-88
2022/12/25 09:55:03;;;;;;;109.40;45.90;;;;;;;4.96;100.00;100891.29;660835;1310;138838;-88
2022/12/25 10:10:32;;;;;;;63.60;25.60;;;;;;;5.26;100.00;100892.54;660863;1312;139650;-90
2022/12/25 10:25:37;;;;;;;53.70;27.50;;;;;;;5.23;100.00;100910.59;660670;1312;139033;-89
2022/12/25 10:40:52;;;;;;;264.70;65.60;;;;;;;5.22;100.00;100915.99;660260;1312;139636;-88
2022/12/25 10:56:00;;;;;;;63.90;25.40;;;;;;;5.44;100.00;100900.01;660919;1313;138960;-89
2022/12/25 11:11:05;;;;;;;52.20;24.20;;;;;;;5.42;100.00;100880.03;660661;1312;139237;-89
2022/12/25 11:26:10;;;;;;;50.60;20.90;;;;;;;5.59;100.00;100886.67;660719;1312;138975;-89
2022/12/25 11:41:19;;;;;;;63.20;27.20;;;;;;;5.40;100.00;100891.06;659942;1313;138894;-89
